KGSB METAR and TAF | Updated Today

KGSB METAR

Seymour Johnson Air Force Base

Observation time: 28 min. ago

KGSB 302055Z 20008KT 10SM BKN032 BKN100 19/15 A2987 RMK AO2A SLP118 T01880151 55008 $

Need help? Read our tutorial on how to read METARs or read the parsed version below.

Seymour Johnson Air Force Base (KGSB) METAR

  • Weather conditions on Wed, 30 Nov 2022 20:55:00 +0000 (28 min. ago):
  • Present conditions: Dry
  • Clouds: Broken sky at 975 meters; broken sky at 3048 meters
  • Visibility: 16093 meters
  • Wind: 200 degrees at 8 knots
  • Temperature: 19 celsius
  • Dew point: 15 celsius
  • Pressure: 29.87 inHg
  • Remarks: AO2A SLP118 T01880151 55008 $


Useful to know...

KGSB TAF

Seymour Johnson Air Force Base

TAF KGSB 302100Z 3021/0203 21009KT 9999 BKN028 BKN200 QNH2985INS BECMG 3023/3024 21009KT 9999 SCT035 SCT250 QNH2989INS TX19/3021Z TN01/0109Z
Observation time: 23 min. ago
Need help? Read our tutorial on how to read TAFs or read the parsed version below.

Parsed version of TAF for Seymour Johnson Air Force Base (KGSB)

  • From 30 November at 21:00 UTC, to day 02 of the month at 03:00 UTC
  • Clouds: Broken sky at 853 meters; broken sky at 6096 meters
  • Visibility: Greater than 10 km
  • Wind: 210 degrees at 9
  • Expected to arise soon, from 30 November at 23:00 UTC, to day 30 of the month at 24:00 UTC
  • Clouds: Scattered at 1067 meters; scattered at 7620 meters
  • Visibility: Greater than 10 km
  • Wind: 210 degrees at 9